Wading River, New York
Current Conditions -  °F | °C
As of 11:56 PM on Wednesday 22 Oct 2014 (Local Time) from KHWV Reporting Station
Overcast Overcast  
Wind Chill: 54°   Ceiling: 1700
Heat Index: 54°   Visibility: 10mi
Dew Point: 50°   Wind: 12mph
Humidity: 86%   Direction: 360°N
Pressure: 29.68"   Gusts: 26mph
Location:  40.95°N, 72.84°W
Report Text: KHWV 230356Z AUTO 36010G23KT 10SM BKN017 OVC024 12/10 A2968 RMK AO2 PK WND 01030/0318 SLP051 T01220100 TSNO $
Loading
Personal Weather Stations






























Interactive Weather Map
Tropical Storm Tracking
New forecast layout! Learn more

10-Day Weather Forecast

Advertisements
Track Severe Weather on mobile